sensor_id;sensor_type;location;lat;lon;timestamp;temperature;humidity
75838;SHT30;64480;52.040;113.502;2023-09-19T00:01:34;12.02;56.40
75838;SHT30;64480;52.040;113.502;2023-09-19T00:04:41;12.14;55.14
75838;SHT30;64480;52.040;113.502;2023-09-19T00:07:47;12.84;54.22
75838;SHT30;64480;52.040;113.502;2023-09-19T00:10:54;14.00;51.04
75838;SHT30;64480;52.040;113.502;2023-09-19T00:13:59;14.87;48.77
75838;SHT30;64480;52.040;113.502;2023-09-19T00:17:03;15.79;46.00
75838;SHT30;64480;52.040;113.502;2023-09-19T00:20:11;16.46;44.79
75838;SHT30;64480;52.040;113.502;2023-09-19T00:23:25;17.08;43.11
75838;SHT30;64480;52.040;113.502;2023-09-19T00:26:32;17.79;42.27
75838;SHT30;64480;52.040;113.502;2023-09-19T00:29:44;18.15;41.09
75838;SHT30;64480;52.040;113.502;2023-09-19T00:33:01;17.43;41.92
75838;SHT30;64480;52.040;113.502;2023-09-19T00:36:13;16.65;43.42
75838;SHT30;64480;52.040;113.502;2023-09-19T00:39:19;15.52;45.43
75838;SHT30;64480;52.040;113.502;2023-09-19T00:42:29;14.72;47.86
75838;SHT30;64480;52.040;113.502;2023-09-19T00:45:33;14.07;49.64
75838;SHT30;64480;52.040;113.502;2023-09-19T00:48:45;13.65;51.12
75838;SHT30;64480;52.040;113.502;2023-09-19T00:52:04;13.10;52.35
75838;SHT30;64480;52.040;113.502;2023-09-19T00:55:11;12.59;53.45
75838;SHT30;64480;52.040;113.502;2023-09-19T00:58:20;11.95;55.68
75838;SHT30;64480;52.040;113.502;2023-09-19T01:01:37;11.56;57.28
75838;SHT30;64480;52.040;113.502;2023-09-19T01:04:56;11.19;58.56
75838;SHT30;64480;52.040;113.502;2023-09-19T01:08:11;11.23;58.95
75838;SHT30;64480;52.040;113.502;2023-09-19T01:11:38;11.30;59.11
75838;SHT30;64480;52.040;113.502;2023-09-19T01:14:57;11.33;59.17
75838;SHT30;64480;52.040;113.502;2023-09-19T01:18:35;11.38;59.18
75838;SHT30;64480;52.040;113.502;2023-09-19T01:32:13;11.05;61.05
75838;SHT30;64480;52.040;113.502;2023-09-19T01:35:21;11.01;61.41
75838;SHT30;64480;52.040;113.502;2023-09-19T01:38:26;11.04;62.22
75838;SHT30;64480;52.040;113.502;2023-09-19T01:45:32;10.91;62.36
75838;SHT30;64480;52.040;113.502;2023-09-19T01:48:46;11.02;62.49
75838;SHT30;64480;52.040;113.502;2023-09-19T01:52:05;11.07;62.39
75838;SHT30;64480;52.040;113.502;2023-09-19T01:55:17;11.25;61.40
75838;SHT30;64480;52.040;113.502;2023-09-19T01:58:43;11.30;60.47
75838;SHT30;64480;52.040;113.502;2023-09-19T02:01:52;11.39;60.18
75838;SHT30;64480;52.040;113.502;2023-09-19T02:04:59;11.38;59.42
75838;SHT30;64480;52.040;113.502;2023-09-19T02:08:05;11.44;59.40
75838;SHT30;64480;52.040;113.502;2023-09-19T02:11:12;11.47;58.74
75838;SHT30;64480;52.040;113.502;2023-09-19T02:14:18;11.63;58.09
75838;SHT30;64480;52.040;113.502;2023-09-19T02:17:22;11.64;57.40
75838;SHT30;64480;52.040;113.502;2023-09-19T02:20:30;11.76;56.22
75838;SHT30;64480;52.040;113.502;2023-09-19T02:23:36;11.78;56.34
75838;SHT30;64480;52.040;113.502;2023-09-19T02:26:44;11.88;55.82
75838;SHT30;64480;52.040;113.502;2023-09-19T02:30:02;12.01;55.11
75838;SHT30;64480;52.040;113.502;2023-09-19T02:33:06;12.12;53.66
75838;SHT30;64480;52.040;113.502;2023-09-19T02:36:20;12.15;53.07
75838;SHT30;64480;52.040;113.502;2023-09-19T02:39:27;12.24;51.78
75838;SHT30;64480;52.040;113.502;2023-09-19T02:42:31;12.32;50.25
75838;SHT30;64480;52.040;113.502;2023-09-19T02:45:39;12.40;48.73
75838;SHT30;64480;52.040;113.502;2023-09-19T02:48:43;12.57;49.74
75838;SHT30;64480;52.040;113.502;2023-09-19T02:51:47;12.68;48.39
75838;SHT30;64480;52.040;113.502;2023-09-19T02:54:57;12.79;48.26
75838;SHT30;64480;52.040;113.502;2023-09-19T02:58:18;12.91;46.07
75838;SHT30;64480;52.040;113.502;2023-09-19T03:01:53;13.15;45.26
75838;SHT30;64480;52.040;113.502;2023-09-19T03:05:05;13.28;44.79
75838;SHT30;64480;52.040;113.502;2023-09-19T03:08:19;13.40;42.12
75838;SHT30;64480;52.040;113.502;2023-09-19T03:11:23;13.46;41.06
75838;SHT30;64480;52.040;113.502;2023-09-19T03:14:32;13.45;36.85
75838;SHT30;64480;52.040;113.502;2023-09-19T03:17:43;13.47;39.33
75838;SHT30;64480;52.040;113.502;2023-09-19T03:20:57;13.59;42.35
75838;SHT30;64480;52.040;113.502;2023-09-19T03:24:06;13.70;37.69
75838;SHT30;64480;52.040;113.502;2023-09-19T03:27:13;13.71;36.93
75838;SHT30;64480;52.040;113.502;2023-09-19T03:30:19;13.77;36.58
75838;SHT30;64480;52.040;113.502;2023-09-19T03:33:23;13.85;36.43
75838;SHT30;64480;52.040;113.502;2023-09-19T03:36:41;13.90;36.76
75838;SHT30;64480;52.040;113.502;2023-09-19T03:39:47;13.93;37.35
75838;SHT30;64480;52.040;113.502;2023-09-19T03:42:59;14.01;36.82
75838;SHT30;64480;52.040;113.502;2023-09-19T03:46:06;14.10;36.21
75838;SHT30;64480;52.040;113.502;2023-09-19T03:49:17;14.17;33.45
75838;SHT30;64480;52.040;113.502;2023-09-19T03:52:29;14.22;34.35
75838;SHT30;64480;52.040;113.502;2023-09-19T03:55:47;14.29;33.52
75838;SHT30;64480;52.040;113.502;2023-09-19T03:58:53;14.35;34.35
75838;SHT30;64480;52.040;113.502;2023-09-19T04:01:58;14.38;34.38
75838;SHT30;64480;52.040;113.502;2023-09-19T04:05:03;14.47;37.06
75838;SHT30;64480;52.040;113.502;2023-09-19T04:08:08;14.63;37.26
75838;SHT30;64480;52.040;113.502;2023-09-19T04:11:12;14.67;36.72
75838;SHT30;64480;52.040;113.502;2023-09-19T04:14:50;14.70;37.00
75838;SHT30;64480;52.040;113.502;2023-09-19T04:17:56;14.72;37.04
75838;SHT30;64480;52.040;113.502;2023-09-19T04:21:14;14.69;36.08
75838;SHT30;64480;52.040;113.502;2023-09-19T04:24:32;14.80;37.11
75838;SHT30;64480;52.040;113.502;2023-09-19T04:27:52;14.91;36.50
75838;SHT30;64480;52.040;113.502;2023-09-19T04:31:10;14.97;36.69
75838;SHT30;64480;52.040;113.502;2023-09-19T04:34:29;15.00;36.94
75838;SHT30;64480;52.040;113.502;2023-09-19T04:37:47;15.05;36.67
75838;SHT30;64480;52.040;113.502;2023-09-19T04:41:10;15.00;37.39
75838;SHT30;64480;52.040;113.502;2023-09-19T04:44:28;15.02;37.75
75838;SHT30;64480;52.040;113.502;2023-09-19T04:47:39;15.10;37.10
75838;SHT30;64480;52.040;113.502;2023-09-19T04:50:44;15.15;38.20
75838;SHT30;64480;52.040;113.502;2023-09-19T04:54:01;15.24;37.63
75838;SHT30;64480;52.040;113.502;2023-09-19T04:57:15;15.31;36.50
75838;SHT30;64480;52.040;113.502;2023-09-19T05:00:33;15.38;38.38
75838;SHT30;64480;52.040;113.502;2023-09-19T05:03:52;15.38;37.73
75838;SHT30;64480;52.040;113.502;2023-09-19T05:06:58;15.42;38.14
75838;SHT30;64480;52.040;113.502;2023-09-19T05:10:17;15.48;37.75
75838;SHT30;64480;52.040;113.502;2023-09-19T05:13:37;15.59;37.46
75838;SHT30;64480;52.040;113.502;2023-09-19T05:17:06;15.66;36.57
75838;SHT30;64480;52.040;113.502;2023-09-19T05:20:32;15.76;37.72
75838;SHT30;64480;52.040;113.502;2023-09-19T05:23:39;15.76;38.24
75838;SHT30;64480;52.040;113.502;2023-09-19T05:26:44;15.87;36.00
75838;SHT30;64480;52.040;113.502;2023-09-19T05:29:49;15.91;36.34
75838;SHT30;64480;52.040;113.502;2023-09-19T05:33:10;15.87;36.38
75838;SHT30;64480;52.040;113.502;2023-09-19T05:36:31;15.90;36.05
75838;SHT30;64480;52.040;113.502;2023-09-19T05:39:49;16.01;36.37
75838;SHT30;64480;52.040;113.502;2023-09-19T05:43:11;16.07;35.65
75838;SHT30;64480;52.040;113.502;2023-09-19T05:46:40;16.07;35.45
75838;SHT30;64480;52.040;113.502;2023-09-19T05:49:57;16.08;34.77
75838;SHT30;64480;52.040;113.502;2023-09-19T05:53:14;16.29;33.87
75838;SHT30;64480;52.040;113.502;2023-09-19T05:56:35;16.30;33.95
75838;SHT30;64480;52.040;113.502;2023-09-19T05:59:58;16.33;34.54
75838;SHT30;64480;52.040;113.502;2023-09-19T06:03:17;16.33;35.11
75838;SHT30;64480;52.040;113.502;2023-09-19T06:06:37;16.38;33.74
75838;SHT30;64480;52.040;113.502;2023-09-19T06:09:58;16.41;34.82
75838;SHT30;64480;52.040;113.502;2023-09-19T06:13:17;16.41;34.95
75838;SHT30;64480;52.040;113.502;2023-09-19T06:16:35;16.45;35.86
75838;SHT30;64480;52.040;113.502;2023-09-19T06:19:56;16.52;35.99
75838;SHT30;64480;52.040;113.502;2023-09-19T06:23:14;16.59;35.86
75838;SHT30;64480;52.040;113.502;2023-09-19T06:26:32;16.60;35.23
75838;SHT30;64480;52.040;113.502;2023-09-19T06:29:48;16.65;35.00
75838;SHT30;64480;52.040;113.502;2023-09-19T06:33:05;16.59;34.95
75838;SHT30;64480;52.040;113.502;2023-09-19T06:36:22;16.59;35.72
75838;SHT30;64480;52.040;113.502;2023-09-19T06:39:30;16.57;35.61
75838;SHT30;64480;52.040;113.502;2023-09-19T06:42:37;16.57;36.37
75838;SHT30;64480;52.040;113.502;2023-09-19T06:45:41;16.59;35.68
75838;SHT30;64480;52.040;113.502;2023-09-19T06:48:46;16.63;35.32
75838;SHT30;64480;52.040;113.502;2023-09-19T06:51:56;16.63;35.18
75838;SHT30;64480;52.040;113.502;2023-09-19T06:55:04;16.74;35.87
75838;SHT30;64480;52.040;113.502;2023-09-19T06:58:10;16.79;36.89
75838;SHT30;64480;52.040;113.502;2023-09-19T07:01:16;16.90;36.55
75838;SHT30;64480;52.040;113.502;2023-09-19T07:04:38;16.97;35.74
75838;SHT30;64480;52.040;113.502;2023-09-19T07:08:03;16.95;36.65
75838;SHT30;64480;52.040;113.502;2023-09-19T07:11:08;17.04;36.19
75838;SHT30;64480;52.040;113.502;2023-09-19T07:14:26;17.04;36.73
75838;SHT30;64480;52.040;113.502;2023-09-19T07:17:45;17.07;36.26
75838;SHT30;64480;52.040;113.502;2023-09-19T07:20:49;17.06;35.78
75838;SHT30;64480;52.040;113.502;2023-09-19T07:23:54;17.07;36.79
75838;SHT30;64480;52.040;113.502;2023-09-19T07:26:58;17.07;37.46
75838;SHT30;64480;52.040;113.502;2023-09-19T07:30:07;17.11;36.81
75838;SHT30;64480;52.040;113.502;2023-09-19T07:33:12;17.17;36.64
75838;SHT30;64480;52.040;113.502;2023-09-19T07:36:17;17.25;35.31
75838;SHT30;64480;52.040;113.502;2023-09-19T07:39:28;17.34;36.12
75838;SHT30;64480;52.040;113.502;2023-09-19T07:42:40;17.39;35.37
75838;SHT30;64480;52.040;113.502;2023-09-19T07:45:47;17.39;35.90
75838;SHT30;64480;52.040;113.502;2023-09-19T07:49:06;17.34;35.83
75838;SHT30;64480;52.040;113.502;2023-09-19T07:52:14;17.38;36.07
75838;SHT30;64480;52.040;113.502;2023-09-19T08:13:35;17.50;36.76
75838;SHT30;64480;52.040;113.502;2023-09-19T08:17:38;17.38;36.62
75838;SHT30;64480;52.040;113.502;2023-09-19T08:20:55;17.36;36.83
75838;SHT30;64480;52.040;113.502;2023-09-19T08:24:10;17.40;36.82
75838;SHT30;64480;52.040;113.502;2023-09-19T08:27:32;17.46;36.82
75838;SHT30;64480;52.040;113.502;2023-09-19T08:30:55;17.53;36.35
75838;SHT30;64480;52.040;113.502;2023-09-19T08:34:14;17.49;37.24
75838;SHT30;64480;52.040;113.502;2023-09-19T08:37:23;17.46;38.31
75838;SHT30;64480;52.040;113.502;2023-09-19T08:40:41;17.46;38.04
75838;SHT30;64480;52.040;113.502;2023-09-19T08:43:50;17.52;37.96
75838;SHT30;64480;52.040;113.502;2023-09-19T08:47:11;17.49;38.20
75838;SHT30;64480;52.040;113.502;2023-09-19T08:50:31;17.35;38.11
75838;SHT30;64480;52.040;113.502;2023-09-19T08:54:09;17.25;38.69
75838;SHT30;64480;52.040;113.502;2023-09-19T08:57:36;17.21;38.42
75838;SHT30;64480;52.040;113.502;2023-09-19T09:00:48;17.22;38.93
75838;SHT30;64480;52.040;113.502;2023-09-19T09:03:56;17.12;38.85
75838;SHT30;64480;52.040;113.502;2023-09-19T09:07:14;17.17;38.71
75838;SHT30;64480;52.040;113.502;2023-09-19T09:10:21;17.17;39.01
75838;SHT30;64480;52.040;113.502;2023-09-19T09:13:30;17.14;39.50
75838;SHT30;64480;52.040;113.502;2023-09-19T09:16:47;17.03;39.42
75838;SHT30;64480;52.040;113.502;2023-09-19T09:20:14;16.97;40.04
75838;SHT30;64480;52.040;113.502;2023-09-19T09:23:34;16.93;39.98
75838;SHT30;64480;52.040;113.502;2023-09-19T09:26:50;16.81;40.55
75838;SHT30;64480;52.040;113.502;2023-09-19T09:30:05;16.81;40.31
75838;SHT30;64480;52.040;113.502;2023-09-19T09:33:40;16.84;40.68
75838;SHT30;64480;52.040;113.502;2023-09-19T09:37:01;16.88;39.31
75838;SHT30;64480;52.040;113.502;2023-09-19T09:40:50;16.87;40.64
75838;SHT30;64480;52.040;113.502;2023-09-19T09:44:18;16.84;40.63
75838;SHT30;64480;52.040;113.502;2023-09-19T09:47:46;16.80;40.91
75838;SHT30;64480;52.040;113.502;2023-09-19T09:51:09;16.74;41.18
75838;SHT30;64480;52.040;113.502;2023-09-19T09:54:20;16.60;41.70
75838;SHT30;64480;52.040;113.502;2023-09-19T09:57:45;16.57;41.07
75838;SHT30;64480;52.040;113.502;2023-09-19T10:01:07;16.51;41.49
75838;SHT30;64480;52.040;113.502;2023-09-19T10:04:27;16.39;41.65
75838;SHT30;64480;52.040;113.502;2023-09-19T10:07:53;16.29;42.20
75838;SHT30;64480;52.040;113.502;2023-09-19T10:11:01;16.19;42.82
75838;SHT30;64480;52.040;113.502;2023-09-19T10:14:26;16.08;43.36
75838;SHT30;64480;52.040;113.502;2023-09-19T10:17:42;16.02;43.67
75838;SHT30;64480;52.040;113.502;2023-09-19T10:20:58;15.90;44.53
75838;SHT30;64480;52.040;113.502;2023-09-19T10:24:26;15.80;44.93
75838;SHT30;64480;52.040;113.502;2023-09-19T10:27:35;15.67;45.85
75838;SHT30;64480;52.040;113.502;2023-09-19T10:30:57;15.55;45.18
75838;SHT30;64480;52.040;113.502;2023-09-19T10:34:17;15.40;45.66
75838;SHT30;64480;52.040;113.502;2023-09-19T10:37:34;15.34;45.02
75838;SHT30;64480;52.040;113.502;2023-09-19T10:40:41;15.25;46.10
75838;SHT30;64480;52.040;113.502;2023-09-19T10:43:53;15.19;45.91
75838;SHT30;64480;52.040;113.502;2023-09-19T10:47:16;15.10;46.98
75838;SHT30;64480;52.040;113.502;2023-09-19T10:54:11;14.97;48.38
75838;SHT30;64480;52.040;113.502;2023-09-19T10:57:30;14.88;48.31
75838;SHT30;64480;52.040;113.502;2023-09-19T11:00:55;14.80;49.13
75838;SHT30;64480;52.040;113.502;2023-09-19T11:04:24;14.79;48.46
75838;SHT30;64480;52.040;113.502;2023-09-19T11:08:12;14.76;49.33
75838;SHT30;64480;52.040;113.502;2023-09-19T11:11:54;14.70;48.70
75838;SHT30;64480;52.040;113.502;2023-09-19T11:19:20;14.49;49.44
75838;SHT30;64480;52.040;113.502;2023-09-19T11:26:40;14.38;49.85
75838;SHT30;64480;52.040;113.502;2023-09-19T11:30:27;14.30;50.03
75838;SHT30;64480;52.040;113.502;2023-09-19T11:44:48;13.88;51.60
75838;SHT30;64480;52.040;113.502;2023-09-19T11:48:08;13.83;52.54
75838;SHT30;64480;52.040;113.502;2023-09-19T11:51:45;13.81;52.86
75838;SHT30;64480;52.040;113.502;2023-09-19T11:55:08;13.71;53.13
75838;SHT30;64480;52.040;113.502;2023-09-19T11:58:31;13.67;53.43
75838;SHT30;64480;52.040;113.502;2023-09-19T12:01:52;13.63;53.74
75838;SHT30;64480;52.040;113.502;2023-09-19T12:05:06;13.59;53.90
75838;SHT30;64480;52.040;113.502;2023-09-19T12:08:14;13.56;54.76
75838;SHT30;64480;52.040;113.502;2023-09-19T12:11:45;13.49;55.80
75838;SHT30;64480;52.040;113.502;2023-09-19T12:15:03;13.36;56.05
75838;SHT30;64480;52.040;113.502;2023-09-19T12:18:30;13.21;56.68
75838;SHT30;64480;52.040;113.502;2023-09-19T12:21:35;13.10;57.32
75838;SHT30;64480;52.040;113.502;2023-09-19T12:25:06;12.97;57.63
75838;SHT30;64480;52.040;113.502;2023-09-19T12:28:18;12.84;57.90
75838;SHT30;64480;52.040;113.502;2023-09-19T12:31:59;12.67;58.55
75838;SHT30;64480;52.040;113.502;2023-09-19T12:35:30;12.49;58.94
75838;SHT30;64480;52.040;113.502;2023-09-19T12:38:51;12.32;59.57
75838;SHT30;64480;52.040;113.502;2023-09-19T12:42:29;12.17;59.73
75838;SHT30;64480;52.040;113.502;2023-09-19T12:45:51;12.06;59.96
75838;SHT30;64480;52.040;113.502;2023-09-19T12:49:18;11.94;60.01
75838;SHT30;64480;52.040;113.502;2023-09-19T12:52:35;11.83;60.80
75838;SHT30;64480;52.040;113.502;2023-09-19T12:55:58;11.73;60.95
75838;SHT30;64480;52.040;113.502;2023-09-19T12:59:16;11.66;61.31
75838;SHT30;64480;52.040;113.502;2023-09-19T13:02:36;11.57;62.34
75838;SHT30;64480;52.040;113.502;2023-09-19T13:05:53;11.43;62.40
75838;SHT30;64480;52.040;113.502;2023-09-19T13:09:12;11.30;63.01
75838;SHT30;64480;52.040;113.502;2023-09-19T13:12:36;11.22;63.69
75838;SHT30;64480;52.040;113.502;2023-09-19T13:15:57;11.11;64.29
75838;SHT30;64480;52.040;113.502;2023-09-19T13:23:26;10.87;64.98
75838;SHT30;64480;52.040;113.502;2023-09-19T13:26:46;10.78;65.59
75838;SHT30;64480;52.040;113.502;2023-09-19T13:30:03;10.73;65.91
75838;SHT30;64480;52.040;113.502;2023-09-19T13:33:14;10.61;66.21
75838;SHT30;64480;52.040;113.502;2023-09-19T13:36:37;10.55;66.74
75838;SHT30;64480;52.040;113.502;2023-09-19T13:40:01;10.45;66.94
75838;SHT30;64480;52.040;113.502;2023-09-19T13:43:10;10.42;67.23
75838;SHT30;64480;52.040;113.502;2023-09-19T13:46:35;10.36;67.39
75838;SHT30;64480;52.040;113.502;2023-09-19T13:49:54;10.36;67.56
75838;SHT30;64480;52.040;113.502;2023-09-19T13:52:59;10.30;67.57
75838;SHT30;64480;52.040;113.502;2023-09-19T13:56:18;10.30;67.49
75838;SHT30;64480;52.040;113.502;2023-09-19T13:59:35;10.25;67.55
75838;SHT30;64480;52.040;113.502;2023-09-19T14:02:52;10.21;67.77
75838;SHT30;64480;52.040;113.502;2023-09-19T14:06:11;10.15;67.92
75838;SHT30;64480;52.040;113.502;2023-09-19T14:09:18;10.06;68.08
75838;SHT30;64480;52.040;113.502;2023-09-19T14:12:23;10.05;67.98
75838;SHT30;64480;52.040;113.502;2023-09-19T14:15:41;9.97;68.55
75838;SHT30;64480;52.040;113.502;2023-09-19T14:18:53;9.87;68.69
75838;SHT30;64480;52.040;113.502;2023-09-19T14:21:56;9.80;68.75
75838;SHT30;64480;52.040;113.502;2023-09-19T14:25:14;9.69;69.20
75838;SHT30;64480;52.040;113.502;2023-09-19T14:28:25;9.57;69.82
75838;SHT30;64480;52.040;113.502;2023-09-19T14:31:42;9.47;69.95
75838;SHT30;64480;52.040;113.502;2023-09-19T14:35:00;9.42;69.38
75838;SHT30;64480;52.040;113.502;2023-09-19T14:38:21;9.29;69.69
75838;SHT30;64480;52.040;113.502;2023-09-19T14:41:25;9.19;69.75
75838;SHT30;64480;52.040;113.502;2023-09-19T14:44:33;9.12;69.99
75838;SHT30;64480;52.040;113.502;2023-09-19T14:47:37;9.01;70.38
75838;SHT30;64480;52.040;113.502;2023-09-19T14:50:48;8.95;70.33
75838;SHT30;64480;52.040;113.502;2023-09-19T14:54:05;8.84;70.35
75838;SHT30;64480;52.040;113.502;2023-09-19T14:57:13;8.75;70.90
75838;SHT30;64480;52.040;113.502;2023-09-19T15:00:19;8.64;71.33
75838;SHT30;64480;52.040;113.502;2023-09-19T15:03:26;8.61;71.37
75838;SHT30;64480;52.040;113.502;2023-09-19T15:06:32;8.56;71.51
75838;SHT30;64480;52.040;113.502;2023-09-19T15:09:42;8.53;71.73
75838;SHT30;64480;52.040;113.502;2023-09-19T15:12:47;8.52;71.83
75838;SHT30;64480;52.040;113.502;2023-09-19T15:15:59;8.49;71.92
75838;SHT30;64480;52.040;113.502;2023-09-19T15:19:04;8.52;72.02
75838;SHT30;64480;52.040;113.502;2023-09-19T15:22:11;8.49;72.32
75838;SHT30;64480;52.040;113.502;2023-09-19T15:25:20;8.45;72.45
75838;SHT30;64480;52.040;113.502;2023-09-19T15:28:29;8.42;72.62
75838;SHT30;64480;52.040;113.502;2023-09-19T15:31:36;8.38;72.49
75838;SHT30;64480;52.040;113.502;2023-09-19T15:34:40;8.39;72.55
75838;SHT30;64480;52.040;113.502;2023-09-19T15:37:48;8.30;73.12
75838;SHT30;64480;52.040;113.502;2023-09-19T15:40:59;8.26;73.58
75838;SHT30;64480;52.040;113.502;2023-09-19T15:44:22;8.16;74.04
75838;SHT30;64480;52.040;113.502;2023-09-19T15:47:49;8.12;74.02
75838;SHT30;64480;52.040;113.502;2023-09-19T15:51:09;8.06;73.95
75838;SHT30;64480;52.040;113.502;2023-09-19T15:54:17;8.01;74.13
75838;SHT30;64480;52.040;113.502;2023-09-19T15:57:21;7.94;73.90
75838;SHT30;64480;52.040;113.502;2023-09-19T16:00:30;7.92;73.85
75838;SHT30;64480;52.040;113.502;2023-09-19T16:04:02;7.87;73.73
75838;SHT30;64480;52.040;113.502;2023-09-19T16:07:13;7.84;73.77
75838;SHT30;64480;52.040;113.502;2023-09-19T16:10:19;7.70;74.03
75838;SHT30;64480;52.040;113.502;2023-09-19T16:13:26;7.63;74.18
75838;SHT30;64480;52.040;113.502;2023-09-19T16:16:31;7.57;74.38
75838;SHT30;64480;52.040;113.502;2023-09-19T16:19:40;7.49;74.70
75838;SHT30;64480;52.040;113.502;2023-09-19T16:22:46;7.49;74.73
75838;SHT30;64480;52.040;113.502;2023-09-19T16:26:06;7.42;75.03
75838;SHT30;64480;52.040;113.502;2023-09-19T16:29:10;7.39;75.00
75838;SHT30;64480;52.040;113.502;2023-09-19T16:32:18;7.39;74.62
75838;SHT30;64480;52.040;113.502;2023-09-19T16:35:24;7.33;74.72
75838;SHT30;64480;52.040;113.502;2023-09-19T16:38:29;7.25;74.86
75838;SHT30;64480;52.040;113.502;2023-09-19T16:41:32;7.21;75.00
75838;SHT30;64480;52.040;113.502;2023-09-19T16:44:37;7.28;74.73
75838;SHT30;64480;52.040;113.502;2023-09-19T16:47:50;7.25;74.86
75838;SHT30;64480;52.040;113.502;2023-09-19T16:50:54;7.23;74.85
75838;SHT30;64480;52.040;113.502;2023-09-19T16:53:59;7.16;75.10
75838;SHT30;64480;52.040;113.502;2023-09-19T16:57:06;7.09;74.74
75838;SHT30;64480;52.040;113.502;2023-09-19T17:00:15;7.01;74.74
75838;SHT30;64480;52.040;113.502;2023-09-19T17:03:24;6.92;75.27
75838;SHT30;64480;52.040;113.502;2023-09-19T17:06:28;6.87;75.55
75838;SHT30;64480;52.040;113.502;2023-09-19T17:09:32;6.84;75.52
75838;SHT30;64480;52.040;113.502;2023-09-19T17:12:43;6.87;75.49
75838;SHT30;64480;52.040;113.502;2023-09-19T17:16:05;6.80;75.62
75838;SHT30;64480;52.040;113.502;2023-09-19T17:19:11;6.79;75.53
75838;SHT30;64480;52.040;113.502;2023-09-19T17:22:16;6.77;75.43
75838;SHT30;64480;52.040;113.502;2023-09-19T17:25:21;6.72;75.75
75838;SHT30;64480;52.040;113.502;2023-09-19T17:28:25;6.66;75.71
75838;SHT30;64480;52.040;113.502;2023-09-19T17:31:29;6.70;75.87
75838;SHT30;64480;52.040;113.502;2023-09-19T17:34:33;6.80;75.57
75838;SHT30;64480;52.040;113.502;2023-09-19T17:37:39;6.80;75.51
75838;SHT30;64480;52.040;113.502;2023-09-19T17:40:43;6.72;75.73
75838;SHT30;64480;52.040;113.502;2023-09-19T17:43:52;6.69;75.95
75838;SHT30;64480;52.040;113.502;2023-09-19T17:46:56;6.69;76.01
75838;SHT30;64480;52.040;113.502;2023-09-19T17:50:00;6.66;76.14
75838;SHT30;64480;52.040;113.502;2023-09-19T17:53:06;6.62;76.22
75838;SHT30;64480;52.040;113.502;2023-09-19T17:56:12;6.54;76.59
75838;SHT30;64480;52.040;113.502;2023-09-19T17:59:18;6.43;76.98
75838;SHT30;64480;52.040;113.502;2023-09-19T18:02:22;6.45;77.04
75838;SHT30;64480;52.040;113.502;2023-09-19T18:05:25;6.38;77.14
75838;SHT30;64480;52.040;113.502;2023-09-19T18:08:29;6.32;77.30
75838;SHT30;64480;52.040;113.502;2023-09-19T18:11:33;6.33;77.16
75838;SHT30;64480;52.040;113.502;2023-09-19T18:14:37;6.33;76.95
75838;SHT30;64480;52.040;113.502;2023-09-19T18:17:40;6.28;76.85
75838;SHT30;64480;52.040;113.502;2023-09-19T18:20:44;6.25;76.64
75838;SHT30;64480;52.040;113.502;2023-09-19T18:23:59;6.18;76.64
75838;SHT30;64480;52.040;113.502;2023-09-19T18:27:04;6.18;76.72
75838;SHT30;64480;52.040;113.502;2023-09-19T18:30:08;6.15;76.66
75838;SHT30;64480;52.040;113.502;2023-09-19T18:33:12;6.15;76.71
75838;SHT30;64480;52.040;113.502;2023-09-19T18:36:16;6.19;76.75
75838;SHT30;64480;52.040;113.502;2023-09-19T18:39:20;6.30;76.44
75838;SHT30;64480;52.040;113.502;2023-09-19T18:42:26;6.38;75.81
75838;SHT30;64480;52.040;113.502;2023-09-19T18:45:31;6.46;75.61
75838;SHT30;64480;52.040;113.502;2023-09-19T18:48:43;6.56;75.13
75838;SHT30;64480;52.040;113.502;2023-09-19T18:51:51;6.58;74.76
75838;SHT30;64480;52.040;113.502;2023-09-19T18:54:56;6.56;74.67
75838;SHT30;64480;52.040;113.502;2023-09-19T18:58:01;6.58;74.53
75838;SHT30;64480;52.040;113.502;2023-09-19T19:01:07;6.64;74.23
75838;SHT30;64480;52.040;113.502;2023-09-19T19:04:12;6.54;74.46
75838;SHT30;64480;52.040;113.502;2023-09-19T19:07:16;6.62;74.22
75838;SHT30;64480;52.040;113.502;2023-09-19T19:10:25;6.52;74.43
75838;SHT30;64480;52.040;113.502;2023-09-19T19:13:30;6.58;74.37
75838;SHT30;64480;52.040;113.502;2023-09-19T19:16:34;6.62;74.17
75838;SHT30;64480;52.040;113.502;2023-09-19T19:19:43;6.63;74.11
75838;SHT30;64480;52.040;113.502;2023-09-19T19:22:47;6.66;74.05
75838;SHT30;64480;52.040;113.502;2023-09-19T19:25:52;6.58;74.32
75838;SHT30;64480;52.040;113.502;2023-09-19T19:28:57;6.56;74.04
75838;SHT30;64480;52.040;113.502;2023-09-19T19:32:02;6.58;74.12
75838;SHT30;64480;52.040;113.502;2023-09-19T19:35:05;6.64;73.40
75838;SHT30;64480;52.040;113.502;2023-09-19T19:38:09;6.69;73.52
75838;SHT30;64480;52.040;113.502;2023-09-19T19:41:13;6.66;73.25
75838;SHT30;64480;52.040;113.502;2023-09-19T19:44:18;6.67;73.31
75838;SHT30;64480;52.040;113.502;2023-09-19T19:47:24;6.62;73.59
75838;SHT30;64480;52.040;113.502;2023-09-19T19:50:30;6.63;73.55
75838;SHT30;64480;52.040;113.502;2023-09-19T19:53:34;6.56;73.73
75838;SHT30;64480;52.040;113.502;2023-09-19T19:56:37;6.45;74.03
75838;SHT30;64480;52.040;113.502;2023-09-19T19:59:43;6.26;74.49
75838;SHT30;64480;52.040;113.502;2023-09-19T20:02:48;6.15;75.10
75838;SHT30;64480;52.040;113.502;2023-09-19T20:05:53;6.10;75.13
75838;SHT30;64480;52.040;113.502;2023-09-19T20:08:58;5.98;75.60
75838;SHT30;64480;52.040;113.502;2023-09-19T20:12:01;5.91;75.74
75838;SHT30;64480;52.040;113.502;2023-09-19T20:15:07;5.84;76.11
75838;SHT30;64480;52.040;113.502;2023-09-19T20:18:14;5.89;76.11
75838;SHT30;64480;52.040;113.502;2023-09-19T20:21:19;5.91;76.26
75838;SHT30;64480;52.040;113.502;2023-09-19T20:24:25;6.07;75.19
75838;SHT30;64480;52.040;113.502;2023-09-19T20:27:29;6.08;75.07
75838;SHT30;64480;52.040;113.502;2023-09-19T20:30:33;6.04;75.29
75838;SHT30;64480;52.040;113.502;2023-09-19T20:33:37;6.17;74.83
75838;SHT30;64480;52.040;113.502;2023-09-19T20:36:42;6.05;74.93
75838;SHT30;64480;52.040;113.502;2023-09-19T20:39:46;5.98;74.84
75838;SHT30;64480;52.040;113.502;2023-09-19T20:42:57;5.90;75.26
75838;SHT30;64480;52.040;113.502;2023-09-19T20:46:04;5.83;75.63
75838;SHT30;64480;52.040;113.502;2023-09-19T20:49:08;5.78;75.48